createdAt,value
2023-05-21T00:03:00.324Z,8.87
2023-05-21T00:06:03.655Z,8.73
2023-05-21T00:09:05.980Z,8.60
2023-05-21T00:12:08.301Z,9.40
2023-05-21T00:15:10.218Z,9.63
2023-05-21T00:18:12.106Z,9.80
2023-05-21T00:21:14.258Z,9.30
2023-05-21T00:24:15.971Z,10.20
2023-05-21T00:27:17.694Z,9.47
2023-05-21T00:30:19.374Z,10.70
2023-05-21T00:33:21.964Z,9.70
2023-05-21T00:36:24.083Z,9.87
2023-05-21T00:39:25.846Z,9.47
2023-05-21T00:42:27.771Z,9.73
2023-05-21T00:45:29.684Z,9.50
2023-05-21T00:48:32.302Z,9.27
2023-05-21T00:51:34.131Z,8.87
2023-05-21T00:54:35.977Z,9.50
2023-05-21T00:57:37.699Z,8.93
2023-05-21T01:00:40.790Z,9.20
2023-05-21T01:03:42.892Z,9.10
2023-05-21T01:06:44.687Z,8.77
2023-05-21T01:09:46.383Z,9.07
2023-05-21T01:12:48.776Z,8.87
2023-05-21T01:15:50.694Z,8.83
2023-05-21T01:18:53.998Z,8.63
2023-05-21T01:22:05.956Z,8.50
2023-05-21T01:25:08.150Z,9.03
2023-05-21T01:28:09.840Z,9.17
2023-05-21T01:31:26.634Z,9.47
2023-05-21T01:34:38.373Z,8.67
2023-05-21T01:38:07.050Z,9.43
2023-05-21T01:41:11.355Z,9.33
2023-05-21T01:44:13.633Z,8.47
2023-05-21T01:47:16.136Z,8.07
2023-05-21T01:50:18.662Z,8.47
2023-05-21T01:53:20.625Z,9.00
2023-05-21T01:56:25.888Z,8.73
2023-05-21T01:59:27.997Z,8.70
2023-05-21T02:02:29.925Z,8.60
2023-05-21T02:05:31.731Z,9.30
2023-05-21T02:08:33.653Z,8.40
2023-05-21T02:11:35.400Z,8.23
2023-05-21T02:14:38.467Z,8.73
2023-05-21T02:17:40.689Z,9.07
2023-05-21T02:20:46.162Z,8.93
2023-05-21T02:23:47.911Z,8.83
2023-05-21T02:26:50.590Z,9.87
2023-05-21T02:29:52.228Z,9.27
2023-05-21T02:32:54.909Z,9.30
2023-05-21T02:35:56.666Z,9.47
2023-05-21T02:38:58.363Z,9.53
2023-05-21T02:42:00.056Z,8.90
2023-05-21T02:45:01.770Z,9.30
2023-05-21T02:48:04.289Z,9.60
2023-05-21T02:51:10.254Z,8.90
2023-05-21T02:54:12.290Z,9.27
2023-05-21T02:57:14.108Z,8.97
2023-05-21T03:00:16.180Z,9.43
2023-05-21T03:03:18.940Z,9.73
2023-05-21T03:06:20.867Z,8.97
2023-05-21T03:09:23.055Z,8.70
2023-05-21T03:12:24.678Z,9.10
2023-05-21T03:15:26.329Z,9.00
2023-05-21T03:18:28.984Z,8.63
2023-05-21T03:21:32.282Z,8.27
2023-05-21T03:24:33.962Z,8.80
2023-05-21T03:27:36.927Z,9.30
2023-05-21T03:30:40.941Z,9.07
2023-05-21T03:34:01.408Z,8.40
2023-05-21T03:37:05.957Z,8.70
2023-05-21T03:40:09.216Z,8.73
2023-05-21T03:43:11.165Z,7.40
2023-05-21T03:46:12.919Z,9.17
2023-05-21T03:49:31.520Z,8.30
2023-05-21T03:52:33.975Z,8.17
2023-05-21T03:55:36.693Z,7.33
2023-05-21T03:58:38.706Z,7.67
2023-05-21T04:01:41.023Z,7.60
2023-05-21T04:04:45.808Z,7.23
2023-05-21T04:07:48.614Z,7.03
2023-05-21T04:10:50.387Z,6.87
2023-05-21T04:13:52.172Z,6.80
2023-05-21T04:16:53.917Z,6.20
2023-05-21T04:19:56.450Z,6.60
2023-05-21T04:22:58.194Z,7.23
2023-05-21T04:25:59.854Z,7.87
2023-05-21T04:29:05.110Z,7.57
2023-05-21T04:32:07.276Z,7.73
2023-05-21T04:35:10.117Z,7.57
2023-05-21T04:38:12.652Z,7.57
2023-05-21T04:41:14.824Z,6.60
2023-05-21T04:44:16.895Z,6.57
2023-05-21T04:47:20.434Z,7.20
2023-05-21T04:50:23.388Z,7.53
2023-05-21T04:53:26.282Z,7.33
2023-05-21T04:56:28.291Z,7.43
2023-05-21T04:59:30.046Z,6.70
2023-05-21T05:02:31.746Z,6.63
2023-05-21T05:05:35.285Z,6.80
2023-05-21T05:08:37.362Z,5.90
2023-05-21T05:11:39.225Z,6.97
2023-05-21T05:14:41.141Z,7.23
2023-05-21T05:17:43.205Z,7.27
2023-05-21T05:20:44.950Z,6.93
2023-05-21T05:23:46.660Z,6.57
2023-05-21T05:26:48.436Z,7.57
2023-05-21T05:29:51.082Z,6.67
2023-05-21T05:32:52.849Z,6.53
2023-05-21T05:35:54.554Z,7.10
2023-05-21T05:38:56.485Z,6.70
2023-05-21T05:41:58.246Z,6.77
2023-05-21T05:45:01.236Z,6.60
2023-05-21T05:48:03.218Z,6.20
2023-05-21T05:51:05.840Z,6.47
2023-05-21T05:54:07.504Z,6.20
2023-05-21T05:57:10.708Z,6.90
2023-05-21T06:00:14.104Z,6.40
2023-05-21T06:03:20.013Z,7.70
2023-05-21T06:06:22.076Z,6.37
2023-05-21T06:09:24.483Z,6.60
2023-05-21T06:12:26.674Z,6.30
2023-05-21T06:15:28.545Z,6.90
2023-05-21T06:18:30.518Z,6.30
2023-05-21T06:21:32.223Z,7.50
2023-05-21T06:24:33.935Z,7.00
2023-05-21T06:27:36.034Z,6.73
2023-05-21T06:30:39.925Z,7.57
2023-05-21T06:33:41.862Z,6.87
2023-05-21T06:36:43.665Z,6.97
2023-05-21T06:39:45.380Z,7.23
2023-05-21T06:42:47.084Z,8.00
2023-05-21T06:46:12.126Z,7.23
2023-05-21T06:49:15.288Z,6.87
2023-05-21T06:52:18.154Z,6.93
2023-05-21T06:55:21.754Z,6.70
2023-05-21T06:58:49.455Z,6.17
2023-05-21T07:01:51.357Z,6.33
2023-05-21T07:04:54.063Z,6.70
2023-05-21T07:07:55.971Z,6.67
2023-05-21T07:10:57.788Z,6.43
2023-05-21T07:14:02.490Z,6.37
2023-05-21T07:17:11.415Z,6.23
2023-05-21T07:20:13.759Z,6.60
2023-05-21T07:23:21.530Z,6.70
2023-05-21T07:26:23.801Z,9.90
2023-05-21T07:29:25.579Z,7.27
2023-05-21T07:32:32.020Z,8.10
2023-05-21T07:35:35.128Z,8.53
2023-05-21T07:38:38.054Z,9.03
2023-05-21T07:41:44.099Z,7.70
2023-05-21T07:44:46.019Z,8.63
2023-05-21T07:47:47.845Z,8.13
2023-05-21T07:50:50.023Z,7.73
2023-05-21T07:53:53.846Z,8.50
2023-05-21T07:57:03.154Z,7.47
2023-05-21T08:00:42.452Z,7.47
2023-05-21T08:03:47.705Z,7.40
2023-05-21T08:06:49.872Z,7.07
2023-05-21T08:09:53.836Z,7.77
2023-05-21T08:12:55.700Z,6.82
2023-05-21T08:15:57.678Z,6.55
2023-05-21T08:18:59.522Z,6.15
2023-05-21T08:22:03.522Z,6.57
2023-05-21T08:25:08.146Z,6.47
2023-05-21T08:28:09.945Z,6.38
2023-05-21T08:31:12.584Z,6.20
2023-05-21T08:34:16.649Z,5.57
2023-05-21T08:37:25.577Z,6.55
2023-05-21T08:40:51.428Z,6.53
2023-05-21T08:43:56.657Z,5.72
2023-05-21T08:46:59.684Z,6.13
2023-05-21T08:50:07.800Z,5.97
2023-05-21T08:53:19.497Z,5.68
2023-05-21T08:56:31.667Z,6.72
2023-05-21T08:59:33.420Z,5.93
2023-05-21T09:02:43.591Z,5.65
2023-05-21T09:05:51.366Z,6.55
2023-05-21T09:08:58.054Z,5.55
2023-05-21T09:12:15.093Z,5.63
2023-05-21T09:15:19.470Z,5.88
2023-05-21T09:18:21.678Z,6.50
2023-05-21T09:21:39.258Z,5.43
2023-05-21T09:24:48.011Z,5.53
2023-05-21T09:27:50.518Z,7.07
2023-05-21T09:30:56.484Z,5.80
2023-05-21T09:33:58.221Z,5.53
2023-05-21T09:37:01.705Z,5.63
2023-05-21T09:40:10.211Z,6.20
2023-05-21T09:43:13.819Z,6.10
2023-05-21T09:46:15.589Z,6.30
2023-05-21T09:49:25.057Z,6.10
2023-05-21T09:52:28.364Z,5.17
2023-05-21T09:55:30.004Z,5.23
2023-05-21T09:58:31.655Z,4.60
2023-05-21T10:01:37.582Z,5.13
2023-05-21T10:04:39.572Z,5.43
2023-05-21T10:07:54.540Z,4.80
2023-05-21T10:10:56.253Z,4.93
2023-05-21T10:14:00.956Z,4.87
2023-05-21T10:17:02.922Z,5.23
2023-05-21T10:20:05.618Z,4.73
2023-05-21T10:23:07.863Z,5.37
2023-05-21T10:26:10.416Z,5.53
2023-05-21T10:29:12.513Z,5.40
2023-05-21T10:32:15.154Z,4.93
2023-05-21T10:35:17.468Z,5.63
2023-05-21T10:38:20.731Z,5.17
2023-05-21T10:41:23.661Z,5.33
2023-05-21T10:44:36.794Z,5.80
2023-05-21T10:48:17.147Z,5.07
2023-05-21T10:51:20.379Z,5.30
2023-05-21T10:54:31.382Z,5.17
2023-05-21T10:57:53.939Z,5.30
2023-05-21T11:00:55.933Z,4.90
2023-05-21T11:03:57.859Z,5.40
2023-05-21T11:06:59.560Z,5.70
2023-05-21T11:10:29.976Z,5.70
2023-05-21T11:13:50.494Z,5.47
2023-05-21T11:16:52.205Z,5.90
2023-05-21T11:19:54.733Z,5.90
2023-05-21T11:22:58.296Z,5.77
2023-05-21T11:26:02.990Z,5.80
2023-05-21T11:29:04.696Z,6.00
2023-05-21T11:32:09.241Z,6.60
2023-05-21T11:35:13.929Z,5.80
2023-05-21T11:38:15.619Z,6.57
2023-05-21T11:41:19.992Z,6.40
2023-05-21T11:44:37.829Z,6.03
2023-05-21T11:47:40.191Z,5.90
2023-05-21T11:50:44.733Z,5.40
2023-05-21T11:53:48.950Z,5.53
2023-05-21T11:56:50.770Z,5.90
2023-05-21T11:59:52.569Z,5.83
2023-05-21T12:02:55.778Z,5.40
2023-05-21T12:06:05.541Z,5.67
2023-05-21T12:09:07.299Z,5.73
2023-05-21T12:12:09.324Z,5.17
2023-05-21T12:15:12.513Z,5.20
2023-05-21T12:18:16.667Z,5.90
2023-05-21T12:21:18.384Z,5.97
2023-05-21T12:24:20.128Z,5.50
2023-05-21T12:27:22.220Z,5.20
2023-05-21T12:30:24.661Z,5.43
2023-05-21T12:33:33.647Z,5.17
2023-05-21T12:36:35.297Z,5.00
2023-05-21T12:39:40.391Z,5.47
2023-05-21T12:42:44.531Z,5.03
2023-05-21T12:45:46.556Z,5.30
2023-05-21T12:48:49.360Z,5.07
2023-05-21T12:51:51.065Z,5.40
2023-05-21T12:54:53.844Z,4.93
2023-05-21T12:58:03.604Z,5.17
2023-05-21T13:01:09.197Z,5.40
2023-05-21T13:04:10.951Z,5.60
2023-05-21T13:07:12.834Z,5.90
2023-05-21T13:10:15.184Z,5.30
2023-05-21T13:13:16.882Z,5.60
2023-05-21T13:16:22.180Z,5.83
2023-05-21T13:19:24.006Z,5.90
2023-05-21T13:22:25.671Z,6.20
2023-05-21T13:25:30.383Z,4.90
2023-05-21T13:28:32.107Z,4.50
2023-05-21T13:31:33.738Z,4.60
2023-05-21T13:34:35.447Z,5.73
2023-05-21T13:37:37.081Z,4.03
2023-05-21T13:40:39.295Z,3.90
2023-05-21T13:43:44.481Z,4.37
2023-05-21T13:46:46.224Z,5.00
2023-05-21T13:49:47.966Z,5.60
2023-05-21T13:52:49.638Z,5.20
2023-05-21T13:55:51.435Z,5.20
2023-05-21T13:58:53.163Z,6.03
2023-05-21T14:01:54.974Z,5.90
2023-05-21T14:04:56.652Z,5.60
2023-05-21T14:07:58.311Z,6.37
2023-05-21T14:11:00.570Z,5.63
2023-05-21T14:14:03.360Z,6.67
2023-05-21T14:17:05.659Z,6.33
2023-05-21T14:20:07.662Z,6.53
2023-05-21T14:23:10.017Z,6.77
2023-05-21T14:26:11.656Z,6.57
2023-05-21T14:29:14.722Z,6.13
2023-05-21T14:32:18.446Z,7.13
2023-05-21T14:35:20.581Z,7.50
2023-05-21T14:38:22.174Z,7.37
2023-05-21T14:41:26.556Z,7.70
2023-05-21T14:44:28.283Z,6.93
2023-05-21T14:47:29.925Z,6.77
2023-05-21T14:50:31.734Z,6.77
2023-05-21T14:53:33.392Z,6.33
2023-05-21T14:56:35.130Z,6.30
2023-05-21T14:59:36.814Z,7.60
2023-05-21T15:02:38.548Z,6.90
2023-05-21T15:05:40.500Z,6.23
2023-05-21T15:08:42.208Z,6.67
2023-05-21T15:11:46.878Z,6.93
2023-05-21T15:14:48.650Z,5.53
2023-05-21T15:17:50.649Z,5.90
2023-05-21T15:20:52.975Z,4.80
2023-05-21T15:23:54.703Z,5.57
2023-05-21T15:26:56.394Z,5.83
2023-05-21T15:29:58.184Z,5.30
2023-05-21T15:32:59.810Z,5.10
2023-05-21T15:36:01.611Z,5.27
2023-05-21T15:39:06.156Z,5.77
2023-05-21T15:42:08.040Z,5.00
2023-05-21T15:45:09.920Z,4.90
2023-05-21T15:48:12.783Z,5.17
2023-05-21T15:51:14.787Z,6.00
2023-05-21T15:54:16.421Z,6.23
2023-05-21T15:57:18.140Z,6.83
2023-05-21T16:00:19.857Z,5.37
2023-05-21T16:03:21.694Z,5.47
2023-05-21T16:06:23.415Z,5.80
2023-05-21T16:09:25.153Z,5.47
2023-05-21T16:12:27.136Z,5.23
2023-05-21T16:15:32.335Z,7.27
2023-05-21T16:18:34.009Z,5.30
2023-05-21T16:21:35.644Z,5.60
2023-05-21T16:24:37.581Z,6.07
2023-05-21T16:27:39.223Z,5.50
2023-05-21T16:30:40.966Z,6.90
2023-05-21T16:33:42.606Z,6.57
2023-05-21T16:36:44.310Z,7.17
2023-05-21T16:39:46.370Z,5.53
2023-05-21T16:42:48.058Z,6.07
2023-05-21T16:45:49.754Z,7.40
2023-05-21T16:48:51.472Z,7.60
2023-05-21T16:51:53.226Z,7.80
2023-05-21T16:54:54.878Z,8.00
2023-05-21T16:57:56.619Z,7.33
2023-05-21T17:00:58.306Z,8.50
2023-05-21T17:04:00.256Z,7.43
2023-05-21T17:07:02.096Z,7.40
2023-05-21T17:10:04.947Z,8.27
2023-05-21T17:13:20.923Z,8.10
2023-05-21T17:16:25.070Z,8.93
2023-05-21T17:19:26.886Z,8.63
2023-05-21T17:22:28.524Z,8.27
2023-05-21T17:25:31.465Z,8.17
2023-05-21T17:28:34.084Z,7.93
2023-05-21T17:31:36.680Z,9.17
2023-05-21T17:34:38.591Z,8.80
2023-05-21T17:37:40.215Z,9.07
2023-05-21T17:40:41.851Z,10.17
2023-05-21T17:43:43.647Z,11.27
2023-05-21T17:46:52.060Z,12.00
2023-05-21T17:49:53.780Z,11.03
2023-05-21T17:52:55.539Z,11.50
2023-05-21T17:55:57.255Z,11.70
2023-05-21T17:58:58.931Z,12.53
2023-05-21T18:02:03.386Z,12.83
2023-05-21T18:05:05.250Z,11.93
2023-05-21T18:08:07.149Z,11.97
2023-05-21T18:11:08.961Z,11.87
2023-05-21T18:14:10.835Z,11.93
2023-05-21T18:17:12.588Z,11.87
2023-05-21T18:20:14.358Z,10.40
2023-05-21T18:23:16.237Z,11.17
2023-05-21T18:26:18.239Z,10.73
2023-05-21T18:29:21.178Z,10.40
2023-05-21T18:32:23.195Z,10.47
2023-05-21T18:35:25.973Z,12.20
2023-05-21T18:38:27.721Z,14.17
2023-05-21T18:41:29.488Z,11.77
2023-05-21T18:44:32.729Z,11.73
2023-05-21T18:47:35.005Z,10.27
2023-05-21T18:50:38.558Z,10.07
2023-05-21T18:53:40.656Z,8.83
2023-05-21T18:56:42.380Z,11.63
2023-05-21T18:59:44.254Z,11.27
2023-05-21T19:02:46.896Z,10.00
2023-05-21T19:05:48.605Z,8.50
2023-05-21T19:08:50.652Z,8.73
2023-05-21T19:11:52.356Z,7.50
2023-05-21T19:14:54.020Z,6.93
2023-05-21T19:17:55.748Z,7.87
2023-05-21T19:20:57.999Z,7.30
2023-05-21T19:24:00.124Z,7.30
2023-05-21T19:27:01.883Z,8.27
2023-05-21T19:30:04.207Z,7.00
2023-05-21T19:33:06.466Z,7.20
2023-05-21T19:36:08.087Z,7.50
2023-05-21T19:39:09.985Z,8.73
2023-05-21T19:42:11.799Z,8.00
2023-05-21T19:45:13.493Z,8.43
2023-05-21T19:48:15.368Z,8.57
2023-05-21T19:51:17.295Z,8.70
2023-05-21T19:54:22.142Z,9.20
2023-05-21T19:57:24.324Z,9.70
2023-05-21T20:00:26.486Z,8.10
2023-05-21T20:03:35.964Z,8.83
2023-05-21T20:06:38.190Z,8.03
2023-05-21T20:09:46.357Z,8.33
2023-05-21T20:13:00.182Z,7.40
2023-05-21T20:16:01.909Z,6.93
2023-05-21T20:19:11.329Z,7.30
2023-05-21T20:22:13.117Z,7.37
2023-05-21T20:25:20.276Z,7.40
2023-05-21T20:28:27.543Z,7.67
2023-05-21T20:31:32.079Z,7.97
2023-05-21T20:34:33.766Z,8.10
2023-05-21T20:37:36.890Z,8.77
2023-05-21T20:40:41.101Z,8.97
2023-05-21T20:43:45.332Z,8.43
2023-05-21T20:46:47.865Z,8.27
2023-05-21T20:49:54.563Z,7.70
2023-05-21T20:52:59.145Z,8.20
2023-05-21T20:56:01.775Z,7.83
2023-05-21T20:59:03.580Z,7.87
2023-05-21T21:02:09.503Z,7.00
2023-05-21T21:05:13.596Z,7.20
2023-05-21T21:08:16.448Z,7.80
2023-05-21T21:11:18.460Z,6.97
2023-05-21T21:14:20.803Z,9.33
2023-05-21T21:17:23.008Z,7.50
2023-05-21T21:20:24.916Z,7.27
2023-05-21T21:23:28.924Z,7.00
2023-05-21T21:26:30.627Z,6.50
2023-05-21T21:29:32.334Z,7.20
2023-05-21T21:32:34.064Z,6.87
2023-05-21T21:35:36.146Z,6.90
2023-05-21T21:38:37.987Z,7.20
2023-05-21T21:41:41.647Z,6.63
2023-05-21T21:44:43.410Z,6.73
2023-05-21T21:47:45.203Z,6.40
2023-05-21T21:50:46.915Z,6.53
2023-05-21T21:53:48.689Z,7.40
2023-05-21T21:56:50.776Z,6.97
2023-05-21T21:59:52.490Z,7.67
2023-05-21T22:02:54.225Z,7.23
2023-05-21T22:05:55.908Z,6.70
2023-05-21T22:08:57.696Z,6.40
2023-05-21T22:11:59.402Z,6.93
2023-05-21T22:15:05.456Z,7.00
2023-05-21T22:18:09.582Z,6.13
2023-05-21T22:21:14.260Z,6.30
2023-05-21T22:24:30.860Z,6.87
2023-05-21T22:27:33.555Z,6.50
2023-05-21T22:30:35.249Z,6.57
2023-05-21T22:33:37.247Z,6.57
2023-05-21T22:36:39.976Z,6.80
2023-05-21T22:39:41.625Z,6.97
2023-05-21T22:42:44.706Z,6.73
2023-05-21T22:45:46.437Z,6.80
2023-05-21T22:48:48.363Z,6.53
2023-05-21T22:51:51.048Z,6.80
2023-05-21T22:54:53.583Z,6.63
2023-05-21T22:57:55.245Z,6.60
2023-05-21T23:00:56.889Z,7.13
2023-05-21T23:03:58.532Z,6.57
2023-05-21T23:07:00.282Z,6.70
2023-05-21T23:10:02.022Z,6.57
2023-05-21T23:13:03.752Z,6.57
2023-05-21T23:16:07.084Z,6.50
2023-05-21T23:19:08.731Z,7.30
2023-05-21T23:22:10.481Z,6.60
2023-05-21T23:25:12.155Z,6.90
2023-05-21T23:28:13.845Z,6.87
2023-05-21T23:31:15.770Z,7.00
2023-05-21T23:34:17.470Z,7.53
2023-05-21T23:37:19.571Z,6.73
2023-05-21T23:40:21.303Z,7.03
2023-05-21T23:43:23.008Z,6.77
2023-05-21T23:46:24.682Z,6.93
2023-05-21T23:49:26.432Z,6.83
2023-05-21T23:52:28.152Z,6.37
2023-05-21T23:55:29.928Z,7.00
2023-05-21T23:58:31.569Z,7.40
